CheckWX is a tool to help pilots better visualize weather data.  It is not intended as a substitute for an official pre-flight weather briefing.

17:10:04 UTC

KRNV METAR
Cleveland Municipal Airport
Cleveland, Mississippi, USA
Current

15 mins ago

KRNV 061655Z AUTO 18004KT 10SM CLR 24/15 A3009 RMK AO2 T02350152
Observed
Apr-6 @ 16:55 UTC
Wind
  • 180° at 4 KTS
Visibility
Flight Rules
VFR
Cloud Levels
  • Clear skies
Temperature
24°C / 75°F
Dewpoint
15°C / 59°F
Humidity
57%
Altimeter
30.09" Hg
Pressure
1018.92 hPa
Previous

35 mins ago

KRNV 061635Z AUTO 18005KT 10SM CLR 23/16 A3009 RMK AO2 T02340155
Observed
Apr-6 @ 16:35 UTC
Wind
  • 180° at 5 KTS
Visibility
Flight Rules
VFR
Cloud Levels
  • Clear skies
Temperature
23°C / 73°F
Dewpoint
16°C / 61°F
Humidity
65%
Altimeter
30.09" Hg
Pressure
1018.92 hPa
Previous

55 mins ago

KRNV 061615Z AUTO 14003KT 10SM CLR 23/15 A3009 RMK AO2 T02300151
Observed
Apr-6 @ 16:15 UTC
Wind
  • 140° at 3 KTS
Visibility
Flight Rules
VFR
Cloud Levels
  • Clear skies
Temperature
23°C / 73°F
Dewpoint
15°C / 59°F
Humidity
61%
Altimeter
30.09" Hg
Pressure
1018.92 hPa